sensor_id;sensor_type;location;lat;lon;timestamp;P1;durP1;ratioP1;P2;durP2;ratioP2
42006;SDS011;27696;42.704;23.304;2022-08-01T00:00:22;5.85;;;3.15;;
42006;SDS011;27696;42.704;23.304;2022-08-01T00:02:47;3.45;;;2.95;;
42006;SDS011;27696;42.704;23.304;2022-08-01T00:05:13;3.75;;;2.95;;
42006;SDS011;27696;42.704;23.304;2022-08-01T00:07:38;5.22;;;3.60;;
42006;SDS011;27696;42.704;23.304;2022-08-01T00:10:05;3.53;;;3.17;;
42006;SDS011;27696;42.704;23.304;2022-08-01T00:12:35;3.30;;;3.00;;
42006;SDS011;27696;42.704;23.304;2022-08-01T00:15:00;3.15;;;2.85;;
42006;SDS011;27696;42.704;23.304;2022-08-01T00:17:26;6.07;;;3.15;;
42006;SDS011;27696;42.704;23.304;2022-08-01T00:19:51;3.03;;;2.80;;
42006;SDS011;27696;42.704;23.304;2022-08-01T00:22:17;4.28;;;2.88;;
42006;SDS011;27696;42.704;23.304;2022-08-01T00:24:42;5.60;;;2.97;;
42006;SDS011;27696;42.704;23.304;2022-08-01T00:27:08;4.75;;;4.35;;
42006;SDS011;27696;42.704;23.304;2022-08-01T00:29:33;5.03;;;4.60;;
42006;SDS011;27696;42.704;23.304;2022-08-01T00:31:59;4.82;;;4.50;;
42006;SDS011;27696;42.704;23.304;2022-08-01T00:34:24;5.50;;;4.90;;
42006;SDS011;27696;42.704;23.304;2022-08-01T00:36:50;5.72;;;4.80;;
42006;SDS011;27696;42.704;23.304;2022-08-01T00:39:15;5.38;;;4.82;;
42006;SDS011;27696;42.704;23.304;2022-08-01T00:41:41;5.90;;;5.40;;
42006;SDS011;27696;42.704;23.304;2022-08-01T00:44:06;6.60;;;5.47;;
42006;SDS011;27696;42.704;23.304;2022-08-01T00:46:32;6.60;;;5.65;;
42006;SDS011;27696;42.704;23.304;2022-08-01T00:48:58;6.07;;;5.57;;
42006;SDS011;27696;42.704;23.304;2022-08-01T00:51:25;5.65;;;4.45;;
42006;SDS011;27696;42.704;23.304;2022-08-01T00:53:51;5.45;;;4.90;;
42006;SDS011;27696;42.704;23.304;2022-08-01T00:56:18;5.28;;;4.75;;
42006;SDS011;27696;42.704;23.304;2022-08-01T00:58:49;5.55;;;5.10;;
42006;SDS011;27696;42.704;23.304;2022-08-01T01:01:15;6.82;;;4.65;;
42006;SDS011;27696;42.704;23.304;2022-08-01T01:03:41;5.25;;;4.85;;
42006;SDS011;27696;42.704;23.304;2022-08-01T01:06:15;6.13;;;5.30;;
42006;SDS011;27696;42.704;23.304;2022-08-01T01:11:44;6.93;;;5.05;;
42006;SDS011;27696;42.704;23.304;2022-08-01T01:17:03;5.53;;;4.78;;
42006;SDS011;27696;42.704;23.304;2022-08-01T01:19:33;7.07;;;3.78;;
42006;SDS011;27696;42.704;23.304;2022-08-01T01:30:53;4.45;;;3.20;;
42006;SDS011;27696;42.704;23.304;2022-08-01T01:33:21;3.90;;;3.58;;
42006;SDS011;27696;42.704;23.304;2022-08-01T01:35:51;6.57;;;3.53;;
42006;SDS011;27696;42.704;23.304;2022-08-01T01:38:24;4.43;;;3.40;;
42006;SDS011;27696;42.704;23.304;2022-08-01T01:40:59;4.50;;;3.72;;
42006;SDS011;27696;42.704;23.304;2022-08-01T01:43:27;4.53;;;3.00;;
42006;SDS011;27696;42.704;23.304;2022-08-01T01:45:54;3.97;;;2.92;;
42006;SDS011;27696;42.704;23.304;2022-08-01T01:48:21;3.80;;;2.88;;
42006;SDS011;27696;42.704;23.304;2022-08-01T01:50:50;3.60;;;3.10;;
42006;SDS011;27696;42.704;23.304;2022-08-01T01:53:19;6.10;;;3.00;;
42006;SDS011;27696;42.704;23.304;2022-08-01T01:55:47;6.05;;;3.03;;
42006;SDS011;27696;42.704;23.304;2022-08-01T01:58:15;3.13;;;2.47;;
42006;SDS011;27696;42.704;23.304;2022-08-01T02:00:42;4.55;;;3.00;;
42006;SDS011;27696;42.704;23.304;2022-08-01T02:03:11;3.58;;;3.28;;
42006;SDS011;27696;42.704;23.304;2022-08-01T02:05:37;2.85;;;2.30;;
42006;SDS011;27696;42.704;23.304;2022-08-01T02:08:05;4.70;;;2.70;;
42006;SDS011;27696;42.704;23.304;2022-08-01T02:10:32;5.38;;;2.88;;
42006;SDS011;27696;42.704;23.304;2022-08-01T02:13:01;4.50;;;2.58;;
42006;SDS011;27696;42.704;23.304;2022-08-01T02:15:29;2.97;;;2.60;;
42006;SDS011;27696;42.704;23.304;2022-08-01T02:17:56;3.45;;;2.50;;
42006;SDS011;27696;42.704;23.304;2022-08-01T02:20:23;4.18;;;2.50;;
42006;SDS011;27696;42.704;23.304;2022-08-01T02:22:50;3.35;;;2.50;;
42006;SDS011;27696;42.704;23.304;2022-08-01T02:25:29;3.08;;;2.75;;
42006;SDS011;27696;42.704;23.304;2022-08-01T02:28:06;7.15;;;2.58;;
42006;SDS011;27696;42.704;23.304;2022-08-01T02:30:36;5.57;;;2.45;;
42006;SDS011;27696;42.704;23.304;2022-08-01T02:34:04;2.75;;;2.53;;
42006;SDS011;27696;42.704;23.304;2022-08-01T02:36:06;6.45;;;2.10;;
42006;SDS011;27696;42.704;23.304;2022-08-01T02:38:34;4.55;;;2.30;;
42006;SDS011;27696;42.704;23.304;2022-08-01T02:41:07;6.15;;;2.30;;
42006;SDS011;27696;42.704;23.304;2022-08-01T02:43:35;3.75;;;2.97;;
42006;SDS011;27696;42.704;23.304;2022-08-01T02:46:04;4.95;;;3.10;;
42006;SDS011;27696;42.704;23.304;2022-08-01T02:48:33;3.50;;;3.20;;
42006;SDS011;27696;42.704;23.304;2022-08-01T02:51:01;8.82;;;3.58;;
42006;SDS011;27696;42.704;23.304;2022-08-01T02:53:29;5.22;;;3.33;;
42006;SDS011;27696;42.704;23.304;2022-08-01T02:55:57;3.88;;;3.22;;
42006;SDS011;27696;42.704;23.304;2022-08-01T02:58:24;5.78;;;3.28;;
42006;SDS011;27696;42.704;23.304;2022-08-01T03:00:50;5.82;;;3.85;;
42006;SDS011;27696;42.704;23.304;2022-08-01T03:03:17;5.63;;;3.60;;
42006;SDS011;27696;42.704;23.304;2022-08-01T03:05:43;7.50;;;3.45;;
42006;SDS011;27696;42.704;23.304;2022-08-01T03:08:10;3.78;;;3.13;;
42006;SDS011;27696;42.704;23.304;2022-08-01T03:10:39;3.53;;;3.28;;
42006;SDS011;27696;42.704;23.304;2022-08-01T03:13:08;6.63;;;3.75;;
42006;SDS011;27696;42.704;23.304;2022-08-01T03:15:37;4.10;;;3.70;;
42006;SDS011;27696;42.704;23.304;2022-08-01T03:18:06;4.32;;;3.90;;
42006;SDS011;27696;42.704;23.304;2022-08-01T03:20:34;7.00;;;3.80;;
42006;SDS011;27696;42.704;23.304;2022-08-01T03:23:01;4.32;;;3.92;;
42006;SDS011;27696;42.704;23.304;2022-08-01T03:25:30;4.50;;;4.10;;
42006;SDS011;27696;42.704;23.304;2022-08-01T03:27:58;5.25;;;4.40;;
42006;SDS011;27696;42.704;23.304;2022-08-01T03:30:26;8.43;;;4.05;;
42006;SDS011;27696;42.704;23.304;2022-08-01T03:32:53;5.20;;;4.15;;
42006;SDS011;27696;42.704;23.304;2022-08-01T03:35:20;5.90;;;4.20;;
42006;SDS011;27696;42.704;23.304;2022-08-01T03:37:49;5.03;;;4.43;;
42006;SDS011;27696;42.704;23.304;2022-08-01T03:40:23;6.93;;;4.35;;
42006;SDS011;27696;42.704;23.304;2022-08-01T03:42:58;7.05;;;5.57;;
42006;SDS011;27696;42.704;23.304;2022-08-01T03:45:29;5.78;;;4.93;;
42006;SDS011;27696;42.704;23.304;2022-08-01T03:47:59;4.70;;;4.22;;
42006;SDS011;27696;42.704;23.304;2022-08-01T03:50:27;4.68;;;4.28;;
42006;SDS011;27696;42.704;23.304;2022-08-01T03:52:54;5.95;;;4.60;;
42006;SDS011;27696;42.704;23.304;2022-08-01T03:55:24;8.65;;;4.18;;
42006;SDS011;27696;42.704;23.304;2022-08-01T03:57:50;5.88;;;4.53;;
42006;SDS011;27696;42.704;23.304;2022-08-01T04:00:17;10.05;;;4.90;;
42006;SDS011;27696;42.704;23.304;2022-08-01T04:02:46;13.63;;;5.10;;
42006;SDS011;27696;42.704;23.304;2022-08-01T04:05:15;8.02;;;5.28;;
42006;SDS011;27696;42.704;23.304;2022-08-01T04:07:41;6.40;;;5.80;;
42006;SDS011;27696;42.704;23.304;2022-08-01T04:10:11;9.65;;;6.03;;
42006;SDS011;27696;42.704;23.304;2022-08-01T04:12:37;8.13;;;6.25;;
42006;SDS011;27696;42.704;23.304;2022-08-01T04:15:03;10.95;;;7.55;;
42006;SDS011;27696;42.704;23.304;2022-08-01T04:17:29;9.77;;;7.25;;
42006;SDS011;27696;42.704;23.304;2022-08-01T04:19:55;12.18;;;6.88;;
42006;SDS011;27696;42.704;23.304;2022-08-01T04:22:20;13.13;;;6.90;;
42006;SDS011;27696;42.704;23.304;2022-08-01T04:24:47;8.77;;;7.03;;
42006;SDS011;27696;42.704;23.304;2022-08-01T04:27:16;11.00;;;7.75;;
42006;SDS011;27696;42.704;23.304;2022-08-01T04:29:47;14.82;;;7.78;;
42006;SDS011;27696;42.704;23.304;2022-08-01T04:32:15;11.80;;;7.28;;
42006;SDS011;27696;42.704;23.304;2022-08-01T04:34:44;15.57;;;8.32;;
42006;SDS011;27696;42.704;23.304;2022-08-01T04:37:12;14.70;;;9.18;;
42006;SDS011;27696;42.704;23.304;2022-08-01T04:39:41;12.60;;;8.77;;
42006;SDS011;27696;42.704;23.304;2022-08-01T04:42:08;13.80;;;8.73;;
42006;SDS011;27696;42.704;23.304;2022-08-01T04:44:35;12.70;;;8.27;;
42006;SDS011;27696;42.704;23.304;2022-08-01T04:47:01;12.13;;;7.63;;
42006;SDS011;27696;42.704;23.304;2022-08-01T04:49:32;14.00;;;8.65;;
42006;SDS011;27696;42.704;23.304;2022-08-01T04:51:58;13.32;;;7.88;;
42006;SDS011;27696;42.704;23.304;2022-08-01T04:54:25;15.10;;;7.88;;
42006;SDS011;27696;42.704;23.304;2022-08-01T04:56:52;15.57;;;7.30;;
42006;SDS011;27696;42.704;23.304;2022-08-01T04:59:20;8.73;;;7.38;;
42006;SDS011;27696;42.704;23.304;2022-08-01T05:02:04;11.10;;;6.40;;
42006;SDS011;27696;42.704;23.304;2022-08-01T05:04:31;9.10;;;6.60;;
42006;SDS011;27696;42.704;23.304;2022-08-01T05:06:56;8.73;;;6.47;;
42006;SDS011;27696;42.704;23.304;2022-08-01T05:09:22;8.95;;;6.38;;
42006;SDS011;27696;42.704;23.304;2022-08-01T05:11:47;10.00;;;7.03;;
42006;SDS011;27696;42.704;23.304;2022-08-01T05:14:13;12.18;;;6.65;;
42006;SDS011;27696;42.704;23.304;2022-08-01T05:16:38;10.30;;;6.35;;
42006;SDS011;27696;42.704;23.304;2022-08-01T05:19:04;13.02;;;7.70;;
42006;SDS011;27696;42.704;23.304;2022-08-01T05:21:29;16.88;;;6.60;;
42006;SDS011;27696;42.704;23.304;2022-08-01T05:23:54;7.47;;;5.30;;
42006;SDS011;27696;42.704;23.304;2022-08-01T05:26:20;9.60;;;5.80;;
42006;SDS011;27696;42.704;23.304;2022-08-01T05:28:45;10.50;;;5.70;;
42006;SDS011;27696;42.704;23.304;2022-08-01T05:31:11;10.45;;;6.38;;
42006;SDS011;27696;42.704;23.304;2022-08-01T05:33:36;6.35;;;5.30;;
42006;SDS011;27696;42.704;23.304;2022-08-01T05:36:02;8.07;;;5.43;;
42006;SDS011;27696;42.704;23.304;2022-08-01T05:38:28;6.93;;;5.40;;
42006;SDS011;27696;42.704;23.304;2022-08-01T05:40:53;6.88;;;5.40;;
42006;SDS011;27696;42.704;23.304;2022-08-01T05:43:18;8.32;;;5.30;;
42006;SDS011;27696;42.704;23.304;2022-08-01T05:45:44;7.75;;;5.72;;
42006;SDS011;27696;42.704;23.304;2022-08-01T05:48:10;9.02;;;4.90;;
42006;SDS011;27696;42.704;23.304;2022-08-01T05:50:36;18.27;;;5.30;;
42006;SDS011;27696;42.704;23.304;2022-08-01T05:53:01;10.65;;;4.75;;
42006;SDS011;27696;42.704;23.304;2022-08-01T05:55:27;6.85;;;5.05;;
42006;SDS011;27696;42.704;23.304;2022-08-01T05:57:52;7.57;;;4.32;;
42006;SDS011;27696;42.704;23.304;2022-08-01T06:00:18;5.32;;;4.45;;
42006;SDS011;27696;42.704;23.304;2022-08-01T06:02:43;10.40;;;4.03;;
42006;SDS011;27696;42.704;23.304;2022-08-01T06:05:09;9.55;;;4.50;;
42006;SDS011;27696;42.704;23.304;2022-08-01T06:07:35;6.28;;;4.35;;
42006;SDS011;27696;42.704;23.304;2022-08-01T06:10:00;6.53;;;3.55;;
42006;SDS011;27696;42.704;23.304;2022-08-01T06:12:26;4.03;;;3.60;;
42006;SDS011;27696;42.704;23.304;2022-08-01T06:14:51;6.57;;;3.75;;
42006;SDS011;27696;42.704;23.304;2022-08-01T06:17:17;8.25;;;3.78;;
42006;SDS011;27696;42.704;23.304;2022-08-01T06:19:42;4.80;;;2.60;;
42006;SDS011;27696;42.704;23.304;2022-08-01T06:22:07;6.53;;;3.05;;
42006;SDS011;27696;42.704;23.304;2022-08-01T06:24:33;4.45;;;2.97;;
42006;SDS011;27696;42.704;23.304;2022-08-01T06:26:58;6.25;;;2.80;;
42006;SDS011;27696;42.704;23.304;2022-08-01T06:29:24;5.15;;;2.60;;
42006;SDS011;27696;42.704;23.304;2022-08-01T06:31:49;4.97;;;2.80;;
42006;SDS011;27696;42.704;23.304;2022-08-01T06:34:15;5.18;;;2.60;;
42006;SDS011;27696;42.704;23.304;2022-08-01T06:36:40;4.28;;;2.67;;
42006;SDS011;27696;42.704;23.304;2022-08-01T06:39:06;3.88;;;2.60;;
42006;SDS011;27696;42.704;23.304;2022-08-01T06:41:31;3.17;;;2.20;;
42006;SDS011;27696;42.704;23.304;2022-08-01T06:43:57;2.60;;;2.40;;
42006;SDS011;27696;42.704;23.304;2022-08-01T06:46:24;4.53;;;2.28;;
42006;SDS011;27696;42.704;23.304;2022-08-01T06:48:50;4.13;;;2.70;;
42006;SDS011;27696;42.704;23.304;2022-08-01T06:51:15;4.03;;;2.72;;
42006;SDS011;27696;42.704;23.304;2022-08-01T06:53:44;4.20;;;2.72;;
42006;SDS011;27696;42.704;23.304;2022-08-01T06:56:10;6.20;;;2.33;;
42006;SDS011;27696;42.704;23.304;2022-08-01T06:58:35;4.78;;;2.55;;
42006;SDS011;27696;42.704;23.304;2022-08-01T07:01:01;6.68;;;2.70;;
42006;SDS011;27696;42.704;23.304;2022-08-01T07:03:30;4.45;;;2.70;;
42006;SDS011;27696;42.704;23.304;2022-08-01T07:05:56;7.47;;;2.80;;
42006;SDS011;27696;42.704;23.304;2022-08-01T07:08:22;3.92;;;3.10;;
42006;SDS011;27696;42.704;23.304;2022-08-01T07:10:47;3.70;;;2.45;;
42006;SDS011;27696;42.704;23.304;2022-08-01T07:13:13;3.97;;;2.58;;
42006;SDS011;27696;42.704;23.304;2022-08-01T07:15:39;3.60;;;2.40;;
42006;SDS011;27696;42.704;23.304;2022-08-01T07:18:05;7.28;;;2.58;;
42006;SDS011;27696;42.704;23.304;2022-08-01T07:20:30;2.97;;;2.20;;
42006;SDS011;27696;42.704;23.304;2022-08-01T07:22:56;6.13;;;2.60;;
42006;SDS011;27696;42.704;23.304;2022-08-01T07:25:21;3.67;;;2.25;;
42006;SDS011;27696;42.704;23.304;2022-08-01T07:27:47;5.93;;;2.30;;
42006;SDS011;27696;42.704;23.304;2022-08-01T07:30:13;4.57;;;2.28;;
42006;SDS011;27696;42.704;23.304;2022-08-01T07:32:38;3.92;;;2.03;;
42006;SDS011;27696;42.704;23.304;2022-08-01T07:35:04;4.60;;;2.47;;
42006;SDS011;27696;42.704;23.304;2022-08-01T07:37:30;4.00;;;2.15;;
42006;SDS011;27696;42.704;23.304;2022-08-01T07:39:55;3.42;;;2.20;;
42006;SDS011;27696;42.704;23.304;2022-08-01T07:42:21;3.22;;;2.00;;
42006;SDS011;27696;42.704;23.304;2022-08-01T07:44:49;4.57;;;2.45;;
42006;SDS011;27696;42.704;23.304;2022-08-01T07:47:15;6.32;;;2.22;;
42006;SDS011;27696;42.704;23.304;2022-08-01T07:49:42;4.95;;;2.47;;
42006;SDS011;27696;42.704;23.304;2022-08-01T07:52:07;3.17;;;2.33;;
42006;SDS011;27696;42.704;23.304;2022-08-01T07:54:33;7.55;;;2.40;;
42006;SDS011;27696;42.704;23.304;2022-08-01T07:56:59;7.25;;;2.75;;
42006;SDS011;27696;42.704;23.304;2022-08-01T07:59:26;7.40;;;2.67;;
42006;SDS011;27696;42.704;23.304;2022-08-01T08:01:51;8.50;;;2.60;;
42006;SDS011;27696;42.704;23.304;2022-08-01T08:04:17;3.58;;;2.22;;
42006;SDS011;27696;42.704;23.304;2022-08-01T08:06:43;4.85;;;2.58;;
42006;SDS011;27696;42.704;23.304;2022-08-01T08:09:09;4.65;;;2.90;;
42006;SDS011;27696;42.704;23.304;2022-08-01T08:11:35;4.10;;;2.60;;
42006;SDS011;27696;42.704;23.304;2022-08-01T08:14:00;4.38;;;2.40;;
42006;SDS011;27696;42.704;23.304;2022-08-01T08:16:26;3.38;;;2.42;;
42006;SDS011;27696;42.704;23.304;2022-08-01T08:18:51;4.50;;;2.22;;
42006;SDS011;27696;42.704;23.304;2022-08-01T08:21:17;4.78;;;2.60;;
42006;SDS011;27696;42.704;23.304;2022-08-01T08:23:42;5.85;;;2.70;;
42006;SDS011;27696;42.704;23.304;2022-08-01T08:26:26;6.30;;;2.50;;
42006;SDS011;27696;42.704;23.304;2022-08-01T08:28:51;3.70;;;2.40;;
42006;SDS011;27696;42.704;23.304;2022-08-01T08:31:17;6.78;;;2.60;;
42006;SDS011;27696;42.704;23.304;2022-08-01T08:33:42;6.20;;;3.13;;
42006;SDS011;27696;42.704;23.304;2022-08-01T08:36:08;5.72;;;2.28;;
42006;SDS011;27696;42.704;23.304;2022-08-01T08:38:33;5.63;;;2.20;;
42006;SDS011;27696;42.704;23.304;2022-08-01T08:40:59;13.45;;;2.33;;
42006;SDS011;27696;42.704;23.304;2022-08-01T08:43:24;3.33;;;2.22;;
42006;SDS011;27696;42.704;23.304;2022-08-01T08:45:51;3.38;;;2.10;;
42006;SDS011;27696;42.704;23.304;2022-08-01T08:48:17;5.28;;;2.22;;
42006;SDS011;27696;42.704;23.304;2022-08-01T08:50:43;2.55;;;2.15;;
42006;SDS011;27696;42.704;23.304;2022-08-01T08:53:10;3.22;;;2.20;;
42006;SDS011;27696;42.704;23.304;2022-08-01T08:55:39;2.38;;;2.15;;
42006;SDS011;27696;42.704;23.304;2022-08-01T08:58:10;2.38;;;1.90;;
42006;SDS011;27696;42.704;23.304;2022-08-01T09:00:42;2.75;;;2.08;;
42006;SDS011;27696;42.704;23.304;2022-08-01T09:03:08;4.55;;;2.40;;
42006;SDS011;27696;42.704;23.304;2022-08-01T09:05:33;3.22;;;2.20;;
42006;SDS011;27696;42.704;23.304;2022-08-01T09:07:59;2.78;;;2.20;;
42006;SDS011;27696;42.704;23.304;2022-08-01T09:10:24;7.65;;;2.50;;
42006;SDS011;27696;42.704;23.304;2022-08-01T09:18:07;3.42;;;2.47;;
42006;SDS011;27696;42.704;23.304;2022-08-01T09:20:33;3.22;;;2.28;;
42006;SDS011;27696;42.704;23.304;2022-08-01T09:23:01;2.80;;;2.30;;
42006;SDS011;27696;42.704;23.304;2022-08-01T09:25:27;4.43;;;1.90;;
42006;SDS011;27696;42.704;23.304;2022-08-01T09:28:04;2.47;;;1.98;;
42006;SDS011;27696;42.704;23.304;2022-08-01T09:30:40;4.03;;;1.70;;
42006;SDS011;27696;42.704;23.304;2022-08-01T09:33:05;2.63;;;2.10;;
42006;SDS011;27696;42.704;23.304;2022-08-01T09:38:19;4.25;;;2.17;;
42006;SDS011;27696;42.704;23.304;2022-08-01T09:40:53;5.32;;;2.10;;
42006;SDS011;27696;42.704;23.304;2022-08-01T09:43:21;5.78;;;2.60;;
42006;SDS011;27696;42.704;23.304;2022-08-01T09:45:49;4.82;;;2.30;;
42006;SDS011;27696;42.704;23.304;2022-08-01T09:48:15;2.60;;;2.05;;
42006;SDS011;27696;42.704;23.304;2022-08-01T09:50:43;3.13;;;2.08;;
42006;SDS011;27696;42.704;23.304;2022-08-01T09:53:12;3.88;;;2.00;;
42006;SDS011;27696;42.704;23.304;2022-08-01T09:55:38;2.63;;;2.00;;
42006;SDS011;27696;42.704;23.304;2022-08-01T09:58:05;2.97;;;2.38;;
42006;SDS011;27696;42.704;23.304;2022-08-01T10:00:31;3.58;;;1.77;;
42006;SDS011;27696;42.704;23.304;2022-08-01T10:02:57;3.95;;;2.13;;
42006;SDS011;27696;42.704;23.304;2022-08-01T10:05:30;3.78;;;2.22;;
42006;SDS011;27696;42.704;23.304;2022-08-01T10:08:01;3.75;;;2.53;;
42006;SDS011;27696;42.704;23.304;2022-08-01T10:10:29;3.75;;;2.10;;
42006;SDS011;27696;42.704;23.304;2022-08-01T10:12:56;2.85;;;2.20;;
42006;SDS011;27696;42.704;23.304;2022-08-01T10:15:22;4.10;;;2.38;;
42006;SDS011;27696;42.704;23.304;2022-08-01T10:20:20;3.60;;;1.90;;
42006;SDS011;27696;42.704;23.304;2022-08-01T10:22:48;4.10;;;2.05;;
42006;SDS011;27696;42.704;23.304;2022-08-01T10:25:15;2.83;;;2.25;;
42006;SDS011;27696;42.704;23.304;2022-08-01T10:27:43;2.50;;;1.90;;
42006;SDS011;27696;42.704;23.304;2022-08-01T10:30:10;3.90;;;2.35;;
42006;SDS011;27696;42.704;23.304;2022-08-01T10:32:36;3.40;;;2.05;;
42006;SDS011;27696;42.704;23.304;2022-08-01T10:35:05;2.75;;;1.90;;
42006;SDS011;27696;42.704;23.304;2022-08-01T10:37:33;2.55;;;1.80;;
42006;SDS011;27696;42.704;23.304;2022-08-01T10:40:00;3.95;;;2.03;;
42006;SDS011;27696;42.704;23.304;2022-08-01T10:42:26;4.85;;;2.22;;
42006;SDS011;27696;42.704;23.304;2022-08-01T10:44:52;4.97;;;1.90;;
42006;SDS011;27696;42.704;23.304;2022-08-01T10:47:34;2.63;;;1.70;;
42006;SDS011;27696;42.704;23.304;2022-08-01T10:50:15;2.00;;;1.90;;
42006;SDS011;27696;42.704;23.304;2022-08-01T10:53:06;2.10;;;1.90;;
42006;SDS011;27696;42.704;23.304;2022-08-01T10:55:47;4.72;;;2.20;;
42006;SDS011;27696;42.704;23.304;2022-08-01T10:58:37;4.65;;;1.80;;
42006;SDS011;27696;42.704;23.304;2022-08-01T11:03:43;3.72;;;1.90;;
42006;SDS011;27696;42.704;23.304;2022-08-01T11:06:23;4.93;;;2.10;;
42006;SDS011;27696;42.704;23.304;2022-08-01T11:08:52;3.50;;;1.85;;
42006;SDS011;27696;42.704;23.304;2022-08-01T11:11:19;4.30;;;2.05;;
42006;SDS011;27696;42.704;23.304;2022-08-01T11:16:30;3.45;;;2.00;;
42006;SDS011;27696;42.704;23.304;2022-08-01T11:18:56;2.75;;;1.70;;
42006;SDS011;27696;42.704;23.304;2022-08-01T11:21:48;3.40;;;1.80;;
42006;SDS011;27696;42.704;23.304;2022-08-01T11:24:53;2.73;;;1.80;;
42006;SDS011;27696;42.704;23.304;2022-08-01T11:32:54;3.03;;;1.85;;
42006;SDS011;27696;42.704;23.304;2022-08-01T11:35:21;2.08;;;1.80;;
42006;SDS011;27696;42.704;23.304;2022-08-01T11:37:50;3.08;;;2.13;;
42006;SDS011;27696;42.704;23.304;2022-08-01T11:42:45;6.88;;;2.03;;
42006;SDS011;27696;42.704;23.304;2022-08-01T11:45:12;3.83;;;1.70;;
42006;SDS011;27696;42.704;23.304;2022-08-01T11:47:44;2.58;;;1.83;;
42006;SDS011;27696;42.704;23.304;2022-08-01T11:50:30;2.55;;;2.13;;
42006;SDS011;27696;42.704;23.304;2022-08-01T11:52:59;5.20;;;2.03;;
42006;SDS011;27696;42.704;23.304;2022-08-01T11:55:29;1.98;;;1.88;;
42006;SDS011;27696;42.704;23.304;2022-08-01T11:57:59;5.65;;;2.58;;
42006;SDS011;27696;42.704;23.304;2022-08-01T12:00:25;4.60;;;2.08;;
42006;SDS011;27696;42.704;23.304;2022-08-01T12:03:01;2.28;;;1.90;;
42006;SDS011;27696;42.704;23.304;2022-08-01T12:05:29;3.83;;;2.20;;
42006;SDS011;27696;42.704;23.304;2022-08-01T12:07:58;3.72;;;2.03;;
42006;SDS011;27696;42.704;23.304;2022-08-01T12:10:25;4.28;;;2.10;;
42006;SDS011;27696;42.704;23.304;2022-08-01T12:12:59;3.42;;;2.22;;
42006;SDS011;27696;42.704;23.304;2022-08-01T12:15:29;5.43;;;2.10;;
42006;SDS011;27696;42.704;23.304;2022-08-01T12:17:56;2.38;;;2.00;;
42006;SDS011;27696;42.704;23.304;2022-08-01T12:20:23;2.42;;;2.20;;
42006;SDS011;27696;42.704;23.304;2022-08-01T12:22:54;8.65;;;2.20;;
42006;SDS011;27696;42.704;23.304;2022-08-01T12:25:20;2.30;;;2.00;;
42006;SDS011;27696;42.704;23.304;2022-08-01T12:27:47;4.70;;;2.17;;
42006;SDS011;27696;42.704;23.304;2022-08-01T12:30:14;2.22;;;1.90;;
42006;SDS011;27696;42.704;23.304;2022-08-01T12:32:41;2.20;;;2.10;;
42006;SDS011;27696;42.704;23.304;2022-08-01T12:35:09;7.25;;;2.40;;
42006;SDS011;27696;42.704;23.304;2022-08-01T12:37:41;2.30;;;2.10;;
42006;SDS011;27696;42.704;23.304;2022-08-01T12:40:09;3.10;;;1.95;;
42006;SDS011;27696;42.704;23.304;2022-08-01T12:42:40;2.83;;;1.98;;
42006;SDS011;27696;42.704;23.304;2022-08-01T12:45:07;5.90;;;2.00;;
42006;SDS011;27696;42.704;23.304;2022-08-01T12:47:35;3.40;;;2.05;;
42006;SDS011;27696;42.704;23.304;2022-08-01T12:50:14;2.33;;;1.90;;
42006;SDS011;27696;42.704;23.304;2022-08-01T12:52:42;2.90;;;2.10;;
42006;SDS011;27696;42.704;23.304;2022-08-01T12:57:36;2.80;;;2.00;;
42006;SDS011;27696;42.704;23.304;2022-08-01T13:02:34;3.55;;;2.00;;
42006;SDS011;27696;42.704;23.304;2022-08-01T13:05:00;3.97;;;2.08;;
42006;SDS011;27696;42.704;23.304;2022-08-01T13:07:36;4.50;;;1.92;;
42006;SDS011;27696;42.704;23.304;2022-08-01T13:10:13;2.63;;;1.67;;
42006;SDS011;27696;42.704;23.304;2022-08-01T13:12:40;1.98;;;1.80;;
42006;SDS011;27696;42.704;23.304;2022-08-01T13:17:49;2.60;;;1.60;;
42006;SDS011;27696;42.704;23.304;2022-08-01T13:23:13;2.75;;;1.92;;
42006;SDS011;27696;42.704;23.304;2022-08-01T13:25:50;3.00;;;1.67;;
42006;SDS011;27696;42.704;23.304;2022-08-01T13:28:24;2.45;;;1.95;;
42006;SDS011;27696;42.704;23.304;2022-08-01T13:30:55;3.17;;;1.60;;
42006;SDS011;27696;42.704;23.304;2022-08-01T13:33:23;4.10;;;1.70;;
42006;SDS011;27696;42.704;23.304;2022-08-01T13:35:51;5.57;;;1.88;;
42006;SDS011;27696;42.704;23.304;2022-08-01T13:38:17;4.88;;;1.88;;
42006;SDS011;27696;42.704;23.304;2022-08-01T13:40:43;1.83;;;1.48;;
42006;SDS011;27696;42.704;23.304;2022-08-01T13:43:08;2.80;;;1.80;;
42006;SDS011;27696;42.704;23.304;2022-08-01T13:45:34;4.15;;;1.95;;
42006;SDS011;27696;42.704;23.304;2022-08-01T13:48:00;3.10;;;1.60;;
42006;SDS011;27696;42.704;23.304;2022-08-01T13:50:26;2.85;;;1.83;;
42006;SDS011;27696;42.704;23.304;2022-08-01T13:52:51;3.13;;;1.50;;
42006;SDS011;27696;42.704;23.304;2022-08-01T13:55:16;4.88;;;1.50;;
42006;SDS011;27696;42.704;23.304;2022-08-01T13:57:42;1.88;;;1.70;;
42006;SDS011;27696;42.704;23.304;2022-08-01T14:00:08;2.42;;;1.50;;
42006;SDS011;27696;42.704;23.304;2022-08-01T14:02:34;5.55;;;2.10;;
42006;SDS011;27696;42.704;23.304;2022-08-01T14:04:59;4.72;;;1.80;;
42006;SDS011;27696;42.704;23.304;2022-08-01T14:07:26;2.67;;;1.60;;
42006;SDS011;27696;42.704;23.304;2022-08-01T14:09:51;2.53;;;1.70;;
42006;SDS011;27696;42.704;23.304;2022-08-01T14:12:17;5.55;;;1.83;;
42006;SDS011;27696;42.704;23.304;2022-08-01T14:14:42;3.05;;;1.95;;
42006;SDS011;27696;42.704;23.304;2022-08-01T14:17:08;2.08;;;1.60;;
42006;SDS011;27696;42.704;23.304;2022-08-01T14:19:33;3.08;;;1.75;;
42006;SDS011;27696;42.704;23.304;2022-08-01T14:21:59;1.63;;;1.40;;
42006;SDS011;27696;42.704;23.304;2022-08-01T14:24:24;3.35;;;1.70;;
42006;SDS011;27696;42.704;23.304;2022-08-01T14:26:51;6.63;;;1.90;;
42006;SDS011;27696;42.704;23.304;2022-08-01T14:29:16;3.05;;;1.98;;
42006;SDS011;27696;42.704;23.304;2022-08-01T14:31:42;2.33;;;1.73;;
42006;SDS011;27696;42.704;23.304;2022-08-01T14:34:07;3.50;;;1.70;;
42006;SDS011;27696;42.704;23.304;2022-08-01T14:36:33;1.88;;;1.77;;
42006;SDS011;27696;42.704;23.304;2022-08-01T14:38:59;3.70;;;1.67;;
42006;SDS011;27696;42.704;23.304;2022-08-01T14:41:24;3.25;;;1.70;;
42006;SDS011;27696;42.704;23.304;2022-08-01T14:43:50;3.67;;;1.30;;
42006;SDS011;27696;42.704;23.304;2022-08-01T14:46:15;3.72;;;1.48;;
42006;SDS011;27696;42.704;23.304;2022-08-01T14:48:41;3.87;;;2.47;;
42006;SDS011;27696;42.704;23.304;2022-08-01T14:51:06;3.22;;;2.58;;
42006;SDS011;27696;42.704;23.304;2022-08-01T14:53:32;2.08;;;1.73;;
42006;SDS011;27696;42.704;23.304;2022-08-01T14:55:58;5.85;;;1.58;;
42006;SDS011;27696;42.704;23.304;2022-08-01T14:58:24;2.85;;;1.60;;
42006;SDS011;27696;42.704;23.304;2022-08-01T15:00:49;1.98;;;1.67;;
42006;SDS011;27696;42.704;23.304;2022-08-01T15:03:19;2.88;;;1.73;;
42006;SDS011;27696;42.704;23.304;2022-08-01T15:05:44;2.35;;;1.23;;
42006;SDS011;27696;42.704;23.304;2022-08-01T15:08:10;1.48;;;1.38;;
42006;SDS011;27696;42.704;23.304;2022-08-01T15:10:35;2.45;;;1.20;;
42006;SDS011;27696;42.704;23.304;2022-08-01T15:13:01;1.77;;;1.40;;
42006;SDS011;27696;42.704;23.304;2022-08-01T15:15:27;2.33;;;1.40;;
42006;SDS011;27696;42.704;23.304;2022-08-01T15:17:52;6.28;;;1.35;;
42006;SDS011;27696;42.704;23.304;2022-08-01T15:20:18;1.52;;;1.40;;
42006;SDS011;27696;42.704;23.304;2022-08-01T15:22:44;1.40;;;1.30;;
42006;SDS011;27696;42.704;23.304;2022-08-01T15:25:10;2.95;;;1.35;;